Time;durP1;ratioP1;P1;durP2;ratioP2;P2;SDS_P1;SDS_P2;PMS_P1;PMS_P2;Temp;Humidity;BMP_temperature;BMP_pressure;BME280_temperature;BME280_humidity;BME280_pressure;Samples;Min_cycle;Max_cycle;Signal;HPM_P1;HPM_P2
2024/01/06 00:02:04;;;;;;;38.57;19.80;;;;;;;4.10;100.00;99676.77;1466636;87;22017;-77
2024/01/06 00:04:31;;;;;;;32.60;19.23;;;;;;;4.07;100.00;99668.67;1479910;88;21412;-78
2024/01/06 00:06:57;;;;;;;29.33;18.20;;;;;;;4.05;100.00;99670.09;1473684;88;21663;-76
2024/01/06 00:09:23;;;;;;;30.03;20.27;;;;;;;4.01;100.00;99668.69;1475301;88;21435;-77
2024/01/06 00:11:49;;;;;;;28.53;17.97;;;;;;;3.98;100.00;99668.94;1474518;88;22453;-77
2024/01/06 00:14:16;;;;;;;33.97;20.27;;;;;;;3.88;100.00;99657.53;1474177;88;21397;-77
2024/01/06 00:16:42;;;;;;;34.80;19.13;;;;;;;3.88;100.00;99657.53;1473774;87;21368;-77
2024/01/06 00:19:08;;;;;;;35.33;20.70;;;;;;;3.90;100.00;99664.80;1466005;88;21590;-77
2024/01/06 00:21:35;;;;;;;27.97;16.27;;;;;;;3.82;100.00;99654.93;1463024;88;21433;-78
2024/01/06 00:24:01;;;;;;;25.73;16.30;;;;;;;3.82;100.00;99657.55;1463213;88;22414;-78
2024/01/06 00:26:27;;;;;;;31.50;18.53;;;;;;;3.80;100.00;99654.25;1473082;87;23893;-78
2024/01/06 00:28:53;;;;;;;28.93;16.23;;;;;;;3.74;100.00;99653.88;1468398;88;21545;-78
2024/01/06 00:31:19;;;;;;;28.23;17.37;;;;;;;3.74;100.00;99653.88;1472735;87;21375;-77
2024/01/06 00:33:46;;;;;;;28.93;15.97;;;;;;;3.71;100.00;99650.20;1477331;88;21456;-76
2024/01/06 00:36:13;;;;;;;26.57;17.33;;;;;;;3.66;100.00;99650.59;1478064;87;22388;-77
2024/01/06 00:38:39;;;;;;;30.20;17.10;;;;;;;3.59;100.00;99639.76;1471546;87;22119;-77
2024/01/06 00:41:05;;;;;;;28.57;17.30;;;;;;;3.59;100.00;99639.76;1469396;88;21375;-77
2024/01/06 00:43:31;;;;;;;30.27;17.97;;;;;;;3.63;100.00;99645.60;1471529;88;22662;-77
2024/01/06 00:45:57;;;;;;;32.87;18.60;;;;;;;3.63;100.00;99650.02;1470815;88;21574;-77
2024/01/06 00:48:24;;;;;;;32.33;20.27;;;;;;;3.60;100.00;99649.30;1472220;87;21390;-77
2024/01/06 00:50:50;;;;;;;39.93;23.50;;;;;;;3.57;100.00;99646.92;1473109;88;21714;-76
2024/01/06 00:53:16;;;;;;;32.83;20.20;;;;;;;3.46;100.00;99639.09;1474226;87;22256;-77
2024/01/06 00:55:43;;;;;;;28.63;18.30;;;;;;;3.46;100.00;99639.09;1466657;87;22246;-77
2024/01/06 00:58:09;;;;;;;32.73;18.30;;;;;;;3.46;100.00;99646.94;1477076;87;23596;-77
2024/01/06 01:00:35;;;;;;;31.97;16.57;;;;;;;3.43;100.00;99653.72;1468528;87;22258;-79
2024/01/06 01:03:02;;;;;;;29.13;15.83;;;;;;;3.35;100.00;99641.23;1472397;87;21374;-77
2024/01/06 01:05:28;;;;;;;28.20;16.20;;;;;;;3.37;100.00;99647.19;1474407;87;22161;-77
2024/01/06 01:07:55;;;;;;;27.53;16.83;;;;;;;3.36;100.00;99652.52;1480833;87;22338;-77
2024/01/06 01:10:21;;;;;;;29.27;17.03;;;;;;;3.34;100.00;99650.53;1480656;87;22185;-76
2024/01/06 01:12:47;;;;;;;33.33;18.93;;;;;;;3.32;100.00;99652.42;1478698;87;22065;-78
2024/01/06 01:15:14;;;;;;;27.57;17.63;;;;;;;3.28;100.00;99653.14;1471662;87;22178;-78
2024/01/06 01:17:44;;;;;;;34.50;18.97;;;;;;;3.27;100.00;99659.79;1475865;87;22020;-78
2024/01/06 01:20:11;;;;;;;42.27;17.77;;;;;;;3.24;100.00;99649.09;1472294;87;22185;-78
2024/01/06 01:22:37;;;;;;;27.97;15.37;;;;;;;3.23;100.00;99646.61;1454007;88;22204;-77
2024/01/06 01:25:07;;;;;;;27.37;15.47;;;;;;;3.21;100.00;99647.20;1481918;88;22275;-77
2024/01/06 01:27:32;;;;;;;27.10;14.33;;;;;;;3.18;100.00;99636.49;1471383;88;23634;-77
2024/01/06 01:29:59;;;;;;;30.63;16.50;;;;;;;3.16;100.00;99637.94;1481087;88;22068;-77
2024/01/06 01:32:25;;;;;;;25.70;14.03;;;;;;;3.15;100.00;99641.48;1472374;87;22029;-78
2024/01/06 01:34:51;;;;;;;28.77;15.00;;;;;;;3.16;100.00;99637.08;1471841;87;22218;-78
2024/01/06 01:37:18;;;;;;;28.43;15.00;;;;;;;3.13;100.00;99627.69;1465019;87;22211;-78
2024/01/06 01:39:44;;;;;;;42.83;16.63;;;;;;;3.12;100.00;99635.19;1471946;87;22200;-78
2024/01/06 01:42:10;;;;;;;30.73;17.73;;;;;;;3.10;100.00;99630.55;1475330;88;22210;-77
2024/01/06 01:44:36;;;;;;;33.33;17.73;;;;;;;3.07;100.00;99629.48;1473565;88;23099;-78
2024/01/06 01:47:05;;;;;;;25.20;14.73;;;;;;;3.05;100.00;99630.09;1469673;87;23204;-78
2024/01/06 01:49:32;;;;;;;33.07;17.43;;;;;;;3.03;100.00;99622.01;1470786;87;22031;-78
2024/01/06 01:51:59;;;;;;;27.73;16.53;;;;;;;3.00;100.00;99618.33;1467901;87;22209;-77
2024/01/06 01:54:26;;;;;;;26.83;16.40;;;;;;;2.97;100.00;99614.65;1477359;87;22019;-78
2024/01/06 01:56:53;;;;;;;30.80;14.87;;;;;;;2.91;100.00;99606.32;1471911;87;21994;-78
2024/01/06 01:59:20;;;;;;;33.40;15.50;;;;;;;2.88;100.00;99609.66;1473715;88;22243;-78
2024/01/06 02:01:47;;;;;;;26.77;15.93;;;;;;;2.87;100.00;99610.59;1470153;88;22096;-78
2024/01/06 02:04:14;;;;;;;31.10;16.33;;;;;;;2.86;100.00;99607.63;1473674;87;22245;-77
2024/01/06 02:06:40;;;;;;;27.40;15.23;;;;;;;2.86;100.00;99601.09;1475720;87;22220;-77
2024/01/06 02:09:06;;;;;;;22.23;13.33;;;;;;;2.86;100.00;99601.09;1474599;87;22142;-77
2024/01/06 02:11:33;;;;;;;28.10;15.47;;;;;;;2.86;100.00;99595.87;1475352;88;22343;-77
2024/01/06 02:14:00;;;;;;;23.73;13.60;;;;;;;2.89;100.00;99595.63;1478220;88;23007;-76
2024/01/06 02:16:26;;;;;;;25.57;16.03;;;;;;;2.90;100.00;99590.74;1475031;87;23088;-76
2024/01/06 02:18:52;;;;;;;24.33;14.67;;;;;;;2.90;100.00;99584.20;1460390;88;22105;-77
2024/01/06 02:21:22;;;;;;;27.83;15.83;;;;;;;2.91;100.00;99588.51;1471059;88;22135;-77
2024/01/06 02:23:49;;;;;;;22.10;12.70;;;;;;;2.91;100.00;99582.80;1483204;88;22024;-77
2024/01/06 02:26:16;;;;;;;26.57;14.93;;;;;;;2.89;100.00;99583.38;1479616;87;22284;-78
2024/01/06 02:28:47;;;;;;;27.67;14.90;;;;;;;2.90;100.00;99586.34;1474368;88;23140;-77
2024/01/06 02:31:10;;;;;;;26.00;15.23;;;;;;;2.89;100.00;99579.94;1460965;88;22192;-78
2024/01/06 02:33:37;;;;;;;24.50;13.77;;;;;;;2.88;100.00;99584.34;1465567;87;22297;-77
2024/01/06 02:36:04;;;;;;;26.90;14.33;;;;;;;2.88;100.00;99578.30;1466333;88;22120;-76
2024/01/06 02:38:30;;;;;;;25.97;13.30;;;;;;;2.88;100.00;99579.60;1467767;88;22602;-77
2024/01/06 02:40:57;;;;;;;33.23;16.83;;;;;;;2.88;100.00;99573.06;1473759;88;22277;-77
2024/01/06 02:43:23;;;;;;;28.60;15.40;;;;;;;2.88;100.00;99576.98;1468773;87;22059;-77
2024/01/06 02:45:49;;;;;;;27.53;13.93;;;;;;;2.87;100.00;99571.38;1471345;87;23140;-77
2024/01/06 02:48:16;;;;;;;20.33;11.70;;;;;;;2.88;100.00;99563.44;1474355;87;22133;-77
2024/01/06 02:50:43;;;;;;;23.73;13.43;;;;;;;2.88;100.00;99562.61;1468670;87;22993;-77
2024/01/06 02:53:09;;;;;;;20.97;13.23;;;;;;;2.83;100.00;99541.22;1474874;87;22389;-78
2024/01/06 02:55:36;;;;;;;22.77;12.73;;;;;;;2.89;100.00;99549.89;1471646;88;22211;-77
2024/01/06 02:58:02;;;;;;;30.83;13.10;;;;;;;2.89;100.00;99549.41;1468471;88;22054;-77
2024/01/06 03:00:28;;;;;;;21.07;11.97;;;;;;;2.92;100.00;99546.55;1474816;87;22068;-76
2024/01/06 03:02:54;;;;;;;20.37;11.90;;;;;;;2.97;100.00;99546.20;1472697;88;22247;-77
2024/01/06 03:05:21;;;;;;;21.90;11.80;;;;;;;3.02;100.00;99547.98;1471627;88;22025;-77
2024/01/06 03:07:47;;;;;;;33.83;16.60;;;;;;;3.06;100.00;99540.24;1471541;87;22250;-77
2024/01/06 03:10:13;;;;;;;28.57;15.10;;;;;;;3.11;100.00;99542.02;1469574;87;22066;-77
2024/01/06 03:12:40;;;;;;;17.83;10.43;;;;;;;3.16;100.00;99537.72;1468974;87;22045;-77
2024/01/06 03:15:07;;;;;;;16.63;9.67;;;;;;;3.22;100.00;99536.40;1474373;87;22237;-77
2024/01/06 03:17:33;;;;;;;19.40;9.73;;;;;;;3.26;100.00;99532.61;1477455;87;22175;-77
2024/01/06 03:19:59;;;;;;;19.57;10.93;;;;;;;3.28;100.00;99534.60;1472325;87;21301;-77
2024/01/06 03:22:26;;;;;;;17.73;10.07;;;;;;;3.25;100.00;99527.00;1474007;88;22248;-77
2024/01/06 03:24:52;;;;;;;17.80;9.43;;;;;;;3.25;100.00;99527.00;1481030;88;22174;-77
2024/01/06 03:27:18;;;;;;;19.40;10.40;;;;;;;3.29;100.00;99531.88;1468536;87;23370;-77
2024/01/06 03:29:44;;;;;;;21.93;12.17;;;;;;;3.27;100.00;99529.85;1466770;88;22098;-77
2024/01/06 03:32:11;;;;;;;24.63;10.50;;;;;;;3.27;100.00;99529.85;1471377;88;21545;-77
2024/01/06 03:34:37;;;;;;;19.50;10.23;;;;;;;3.35;100.00;99537.92;1474140;87;22069;-77
2024/01/06 03:37:04;;;;;;;21.63;10.47;;;;;;;3.37;100.00;99522.11;1470546;87;22157;-77
2024/01/06 03:39:31;;;;;;;18.93;11.27;;;;;;;3.43;100.00;99522.09;1478190;87;21582;-77
2024/01/06 03:41:57;;;;;;;17.50;11.13;;;;;;;3.43;100.00;99522.09;1469044;87;22322;-77
2024/01/06 03:44:23;;;;;;;20.07;12.23;;;;;;;3.46;100.00;99523.98;1466991;87;22545;-77
2024/01/06 03:46:49;;;;;;;17.80;11.00;;;;;;;3.50;100.00;99525.38;1463766;88;22135;-77
2024/01/06 03:49:18;;;;;;;19.00;10.70;;;;;;;3.51;100.00;99523.14;1471604;88;22257;-78
2024/01/06 03:51:43;;;;;;;18.00;10.07;;;;;;;3.53;100.00;99522.52;1476141;88;22650;-77
2024/01/06 03:54:09;;;;;;;16.87;10.83;;;;;;;3.51;100.00;99524.45;1467632;87;23037;-77
2024/01/06 03:56:36;;;;;;;17.10;10.03;;;;;;;3.51;100.00;99524.45;1466816;88;21434;-77
2024/01/06 03:59:02;;;;;;;14.47;9.07;;;;;;;3.49;100.00;99533.38;1467870;87;22073;-78
2024/01/06 04:01:28;;;;;;;17.57;9.53;;;;;;;3.37;100.00;99520.33;1473283;87;21294;-78
2024/01/06 04:03:55;;;;;;;19.23;9.03;;;;;;;3.37;100.00;99520.33;1468776;87;21622;-78
2024/01/06 04:06:21;;;;;;;16.90;8.37;;;;;;;3.40;100.00;99519.25;1474287;87;21471;-78
2024/01/06 04:08:47;;;;;;;14.93;9.87;;;;;;;3.45;100.00;99527.53;1470007;88;22480;-78
2024/01/06 04:11:14;;;;;;;13.27;8.23;;;;;;;3.45;100.00;99527.53;1463596;88;21673;-78
2024/01/06 04:13:40;;;;;;;14.90;8.20;;;;;;;3.45;100.00;99531.45;1470241;88;22351;-79
2024/01/06 04:16:06;;;;;;;12.27;7.60;;;;;;;3.47;100.00;99523.50;1465478;88;22057;-78
2024/01/06 04:18:33;;;;;;;15.27;8.60;;;;;;;3.47;100.00;99532.66;1475101;88;21951;-78
2024/01/06 04:20:59;;;;;;;17.53;9.20;;;;;;;3.47;100.00;99532.66;1472773;87;22426;-78
2024/01/06 04:23:25;;;;;;;16.57;9.27;;;;;;;3.55;100.00;99532.39;1472762;87;22088;-78
2024/01/06 04:25:52;;;;;;;17.93;9.83;;;;;;;3.55;100.00;99532.39;1470523;88;21374;-79
2024/01/06 04:28:18;;;;;;;19.77;11.40;;;;;;;3.68;100.00;99532.69;1477208;87;21383;-78
2024/01/06 04:30:44;;;;;;;18.47;9.13;;;;;;;3.71;100.00;99541.59;1473024;88;21360;-79
2024/01/06 04:33:10;;;;;;;18.67;11.03;;;;;;;3.71;100.00;99541.59;1474608;87;21323;-77
2024/01/06 04:35:36;;;;;;;22.17;9.33;;;;;;;3.72;100.00;99527.58;1464323;88;21449;-78
2024/01/06 04:38:02;;;;;;;14.53;8.47;;;;;;;3.79;100.00;99542.63;1471258;88;21869;-78
2024/01/06 04:40:28;;;;;;;17.70;9.30;;;;;;;3.85;100.00;99524.28;1466293;87;21368;-79
2024/01/06 04:42:55;;;;;;;18.67;9.70;;;;;;;3.88;100.00;99531.88;1477155;88;21376;-79
2024/01/06 04:45:23;;;;;;;15.03;7.70;;;;;;;3.93;100.00;99534.13;1469612;88;21538;-78
2024/01/06 04:47:49;;;;;;;18.83;8.63;;;;;;;3.93;100.00;99534.13;1473490;87;21471;-79
2024/01/06 04:50:17;;;;;;;12.20;7.60;;;;;;;3.93;100.00;99536.27;1475995;87;21530;-78
2024/01/06 04:52:43;;;;;;;18.70;10.47;;;;;;;3.95;100.00;99535.66;1469818;87;22320;-78
2024/01/06 04:55:10;;;;;;;13.03;7.27;;;;;;;3.97;100.00;99529.84;1477635;88;21405;-78
2024/01/06 04:57:37;;;;;;;14.43;9.10;;;;;;;3.99;100.00;99531.82;1471716;88;21302;-78
2024/01/06 05:00:05;;;;;;;15.80;8.37;;;;;;;4.01;100.00;99537.77;1466498;88;21504;-79
2024/01/06 05:02:31;;;;;;;22.03;7.97;;;;;;;4.07;100.00;99541.19;1477469;87;21383;-79
2024/01/06 05:04:57;;;;;;;11.70;7.17;;;;;;;4.07;100.00;99542.49;1464061;88;21553;-80
2024/01/06 05:07:23;;;;;;;16.83;9.57;;;;;;;4.02;100.00;99538.11;1470766;88;22291;-78
2024/01/06 05:09:49;;;;;;;16.23;9.43;;;;;;;4.04;100.00;99536.20;1474392;88;21457;-79
2024/01/06 05:12:15;;;;;;;15.40;7.80;;;;;;;4.05;100.00;99536.55;1472057;87;21346;-79
2024/01/06 05:14:42;;;;;;;15.47;8.57;;;;;;;3.99;100.00;99537.55;1474763;88;22580;-79
2024/01/06 05:17:09;;;;;;;15.00;8.83;;;;;;;3.99;100.00;99537.55;1471649;88;22211;-79
2024/01/06 05:19:36;;;;;;;13.33;6.83;;;;;;;3.98;100.00;99543.27;1458963;88;21531;-79
2024/01/06 05:22:02;;;;;;;12.67;7.20;;;;;;;3.96;100.00;99540.42;1461656;88;22210;-79
2024/01/06 05:24:28;;;;;;;15.23;7.43;;;;;;;3.96;100.00;99534.70;1468201;88;21301;-79
2024/01/06 05:26:55;;;;;;;13.30;8.43;;;;;;;3.97;100.00;99533.77;1473682;87;21442;-80
2024/01/06 05:29:21;;;;;;;16.83;10.00;;;;;;;4.04;100.00;99532.28;1476898;88;21547;-79
2024/01/06 05:31:48;;;;;;;17.87;8.23;;;;;;;4.10;100.00;99532.73;1461913;88;21494;-79
2024/01/06 05:34:15;;;;;;;13.93;7.73;;;;;;;4.17;100.00;99533.87;1471359;88;21583;-79
2024/01/06 05:36:41;;;;;;;15.07;8.50;;;;;;;4.19;100.00;99528.03;1470173;87;21353;-79
2024/01/06 05:39:07;;;;;;;14.70;9.30;;;;;;;4.19;100.00;99527.55;1474007;87;21523;-79
2024/01/06 05:41:40;;;;;;;23.07;10.57;;;;;;;4.16;100.00;99526.49;1471034;88;21367;-79
2024/01/06 05:44:07;;;;;;;15.40;9.57;;;;;;;4.16;100.00;99530.91;1465259;88;21382;-79
2024/01/06 05:46:34;;;;;;;17.27;10.07;;;;;;;4.17;100.00;99518.16;1475017;87;21434;-79
2024/01/06 05:49:00;;;;;;;16.87;8.47;;;;;;;4.18;100.00;99526.38;1474821;87;21323;-79
2024/01/06 05:51:26;;;;;;;19.20;10.47;;;;;;;4.19;100.00;99524.92;1477551;88;22439;-79
2024/01/06 05:53:52;;;;;;;22.37;9.20;;;;;;;4.21;100.00;99520.40;1472371;87;21412;-79
2024/01/06 05:56:27;;;;;;;24.40;9.93;;;;;;;4.23;100.00;99523.73;1466709;88;21374;-77
2024/01/06 05:58:53;;;;;;;15.57;7.07;;;;;;;4.26;100.00;99518.71;1469170;87;21361;-77
2024/01/06 06:01:20;;;;;;;14.13;7.80;;;;;;;4.32;100.00;99510.81;1474970;88;21441;-77
2024/01/06 06:03:47;;;;;;;12.60;8.40;;;;;;;4.37;100.00;99513.37;1464103;88;21316;-77
2024/01/06 06:06:13;;;;;;;16.83;8.80;;;;;;;4.41;100.00;99512.65;1475447;87;21440;-78
2024/01/06 06:08:44;;;;;;;12.90;7.07;;;;;;;4.44;100.00;99510.59;1470992;88;22306;-78
2024/01/06 06:11:11;;;;;;;12.03;7.23;;;;;;;4.46;100.00;99509.98;1470442;88;21383;-78
2024/01/06 06:13:40;;;;;;;22.77;8.77;;;;;;;4.47;100.00;99510.33;1473320;88;21426;-77
2024/01/06 06:16:09;;;;;;;17.30;7.83;;;;;;;4.48;100.00;99503.29;1470351;87;21722;-81
2024/01/06 06:18:36;;;;;;;15.13;7.13;;;;;;;4.52;100.00;99506.02;1473289;87;21500;-78
2024/01/06 06:21:03;;;;;;;11.33;6.53;;;;;;;4.56;100.00;99510.02;1466996;88;21339;-77
2024/01/06 06:23:33;;;;;;;16.53;7.30;;;;;;;4.62;100.00;99506.05;1478953;87;22299;-78
2024/01/06 06:25:59;;;;;;;12.77;7.10;;;;;;;4.68;100.00;99510.75;1470894;88;21354;-77
2024/01/06 06:28:26;;;;;;;11.70;7.00;;;;;;;4.75;100.00;99507.97;1479781;88;22040;-77
2024/01/06 06:30:53;;;;;;;17.23;8.27;;;;;;;4.80;100.00;99509.69;1462408;87;21405;-77
2024/01/06 06:33:19;;;;;;;12.97;7.17;;;;;;;4.83;100.00;99513.34;1475701;87;22362;-80
2024/01/06 06:35:45;;;;;;;18.47;7.70;;;;;;;4.86;100.00;99517.05;1477426;88;21361;-79
2024/01/06 06:38:11;;;;;;;12.93;6.93;;;;;;;4.88;100.00;99524.77;1474005;88;21353;-80
2024/01/06 06:40:37;;;;;;;13.43;7.13;;;;;;;4.91;100.00;99526.63;1475371;87;22755;-80
2024/01/06 06:43:04;;;;;;;13.97;7.83;;;;;;;4.92;100.00;99528.31;1470870;88;21582;-80
2024/01/06 06:45:30;;;;;;;12.83;6.67;;;;;;;4.95;100.00;99524.11;1473452;88;22586;-80
2024/01/06 06:47:56;;;;;;;12.80;7.07;;;;;;;4.98;100.00;99519.91;1477723;87;21419;-79
2024/01/06 06:50:22;;;;;;;16.70;7.43;;;;;;;5.05;100.00;99523.30;1469465;87;21353;-80
2024/01/06 06:52:49;;;;;;;15.27;7.37;;;;;;;5.11;100.00;99526.69;1471373;87;21598;-80
2024/01/06 06:55:16;;;;;;;13.27;7.73;;;;;;;5.16;100.00;99519.25;1472657;88;21376;-80
2024/01/06 06:57:42;;;;;;;13.83;7.33;;;;;;;5.18;100.00;99523.41;1478643;88;21382;-80
2024/01/06 07:00:09;;;;;;;15.80;8.97;;;;;;;5.20;100.00;99527.19;1474961;87;21434;-80
2024/01/06 07:02:35;;;;;;;14.17;8.73;;;;;;;5.19;100.00;99522.92;1472872;87;21538;-79
2024/01/06 07:05:01;;;;;;;16.63;8.27;;;;;;;5.22;100.00;99528.37;1466826;87;22350;-80
2024/01/06 07:07:27;;;;;;;17.77;9.37;;;;;;;5.25;100.00;99532.04;1474930;87;21888;-80
2024/01/06 07:09:54;;;;;;;20.57;10.20;;;;;;;5.29;100.00;99528.99;1472479;88;21455;-80
2024/01/06 07:12:22;;;;;;;24.07;11.47;;;;;;;5.33;100.00;99525.15;1477351;87;21463;-80
2024/01/06 07:14:48;;;;;;;19.63;10.43;;;;;;;5.38;100.00;99519.02;1469984;88;22197;-80
2024/01/06 07:17:14;;;;;;;22.63;11.10;;;;;;;5.47;100.00;99513.89;1464615;87;21404;-80
2024/01/06 07:19:40;;;;;;;21.70;11.53;;;;;;;5.54;100.00;99515.02;1476383;88;21331;-80
2024/01/06 07:22:07;;;;;;;24.53;10.43;;;;;;;5.58;100.00;99515.07;1476098;88;21848;-80
2024/01/06 07:24:32;;;;;;;19.80;10.63;;;;;;;5.61;100.00;99516.11;1475796;87;21376;-79
2024/01/06 07:26:59;;;;;;;20.57;11.33;;;;;;;5.65;100.00;99516.20;1473951;88;21500;-82
2024/01/06 07:29:25;;;;;;;19.33;11.13;;;;;;;5.66;100.00;99510.79;1463213;88;22231;-82
2024/01/06 07:31:51;;;;;;;24.30;13.57;;;;;;;5.69;100.00;99505.75;1469139;88;21368;-82
2024/01/06 07:34:17;;;;;;;20.87;11.53;;;;;;;5.69;100.00;99507.06;1466999;88;21398;-80
2024/01/06 07:36:44;;;;;;;24.97;12.30;;;;;;;5.72;100.00;99503.33;1470855;87;21503;-81
2024/01/06 07:39:10;;;;;;;20.30;11.33;;;;;;;5.74;100.00;99505.34;1477593;87;21390;-78
2024/01/06 07:41:36;;;;;;;19.43;10.10;;;;;;;5.78;100.00;99504.94;1473868;88;21426;-80
2024/01/06 07:44:02;;;;;;;19.53;11.87;;;;;;;5.83;100.00;99503.19;1473248;88;21405;-82
2024/01/06 07:46:29;;;;;;;47.63;27.07;;;;;;;5.90;100.00;99502.99;1472175;88;21676;-79
2024/01/06 07:48:55;;;;;;;55.47;33.03;;;;;;;5.94;100.00;99498.31;1476691;87;21338;-78
2024/01/06 07:51:21;;;;;;;62.67;36.10;;;;;;;5.97;100.00;99504.59;1468372;88;21426;-78
2024/01/06 07:53:47;;;;;;;48.60;28.70;;;;;;;5.99;100.00;99503.48;1465450;87;21383;-80
2024/01/06 07:56:14;;;;;;;30.40;17.57;;;;;;;6.00;100.00;99501.69;1480181;87;21310;-81
2024/01/06 07:58:40;;;;;;;23.10;13.93;;;;;;;6.01;100.00;99502.88;1474393;88;21448;-79
2024/01/06 08:01:06;;;;;;;20.43;11.93;;;;;;;6.03;100.00;99506.16;1467152;88;22381;-78
2024/01/06 08:03:32;;;;;;;19.77;10.67;;;;;;;6.05;100.00;99512.61;1471609;88;22424;-78
2024/01/06 08:05:58;;;;;;;16.83;10.83;;;;;;;6.08;100.00;99516.27;1472104;87;21383;-79
2024/01/06 08:08:24;;;;;;;20.50;10.20;;;;;;;6.12;100.00;99512.38;1476559;88;21339;-78
2024/01/06 08:10:50;;;;;;;18.37;10.87;;;;;;;6.16;100.00;99517.70;1466030;87;22432;-79
2024/01/06 08:13:17;;;;;;;18.83;11.40;;;;;;;6.21;100.00;99527.28;1476723;87;21390;-81
2024/01/06 08:15:43;;;;;;;21.03;10.93;;;;;;;6.23;100.00;99520.09;1471769;88;21339;-81
2024/01/06 08:18:09;;;;;;;18.10;13.30;;;;;;;6.25;100.00;99519.97;1467973;87;21464;-81
2024/01/06 08:20:35;;;;;;;20.70;12.50;;;;;;;6.27;100.00;99521.95;1464836;88;21526;-81
2024/01/06 08:23:04;;;;;;;19.10;12.13;;;;;;;6.24;100.00;99524.39;1467374;88;21375;-80
2024/01/06 08:25:30;;;;;;;23.93;11.10;;;;;;;6.23;100.00;99522.72;1476278;88;21460;-80
2024/01/06 08:27:56;;;;;;;23.50;13.63;;;;;;;6.23;100.00;99524.52;1473113;87;21434;-81
2024/01/06 08:30:23;;;;;;;25.43;13.27;;;;;;;6.27;100.00;99531.14;1473881;88;21367;-81
2024/01/06 08:32:49;;;;;;;23.23;13.63;;;;;;;6.32;100.00;99540.26;1468296;88;22388;-80
2024/01/06 08:35:16;;;;;;;25.40;13.73;;;;;;;6.36;100.00;99530.31;1475780;87;21397;-81
2024/01/06 08:37:44;;;;;;;35.07;22.33;;;;;;;6.36;100.00;99534.72;1472782;87;21413;-81
2024/01/06 08:40:11;;;;;;;41.03;26.70;;;;;;;6.37;100.00;99535.91;1474003;88;21309;-81
2024/01/06 08:42:37;;;;;;;29.93;18.27;;;;;;;6.41;100.00;99533.81;1454262;88;22360;-81
2024/01/06 08:45:04;;;;;;;30.20;19.40;;;;;;;6.46;100.00;99544.73;1475728;88;21965;-81
2024/01/06 08:47:31;;;;;;;30.73;18.20;;;;;;;6.51;100.00;99543.83;1474790;88;21442;-80
2024/01/06 08:49:57;;;;;;;34.63;18.13;;;;;;;6.55;100.00;99547.81;1472222;88;21563;-80
2024/01/06 08:52:23;;;;;;;29.77;17.17;;;;;;;6.59;100.00;99553.14;1473260;87;22270;-80
2024/01/06 08:54:50;;;;;;;25.60;15.37;;;;;;;6.62;100.00;99553.31;1470150;88;21427;-80
2024/01/06 08:57:16;;;;;;;26.93;16.17;;;;;;;6.61;100.00;99559.06;1475350;88;21508;-80
2024/01/06 08:59:42;;;;;;;24.83;15.20;;;;;;;6.60;100.00;99553.97;1470123;87;21398;-80
2024/01/06 09:02:08;;;;;;;22.30;14.03;;;;;;;6.60;100.00;99558.73;1471042;88;21368;-81
2024/01/06 09:04:34;;;;;;;21.00;12.83;;;;;;;6.62;100.00;99553.31;1464703;87;22351;-81
2024/01/06 09:07:01;;;;;;;31.70;19.03;;;;;;;6.62;100.00;99555.95;1473501;87;21914;-80
2024/01/06 09:09:28;;;;;;;24.70;13.70;;;;;;;6.63;100.00;99554.50;1463574;88;21398;-80
2024/01/06 09:11:54;;;;;;;30.77;18.27;;;;;;;6.65;100.00;99556.52;1471384;87;21360;-79
2024/01/06 09:14:21;;;;;;;20.77;11.80;;;;;;;6.65;100.00;99553.88;1480068;87;22248;-79
2024/01/06 09:16:47;;;;;;;18.40;9.60;;;;;;;6.65;100.00;99557.00;1468875;87;21388;-80
2024/01/06 09:19:13;;;;;;;20.43;11.40;;;;;;;6.66;100.00;99553.39;1474618;87;21420;-80
2024/01/06 09:21:39;;;;;;;16.70;10.63;;;;;;;6.67;100.00;99556.35;1475161;88;22423;-80
2024/01/06 09:24:06;;;;;;;19.87;13.63;;;;;;;6.69;100.00;99558.36;1470762;88;22267;-80
2024/01/06 09:26:35;;;;;;;17.30;10.43;;;;;;;6.69;100.00;99554.41;1467681;88;21448;-79
2024/01/06 09:29:03;;;;;;;13.50;9.20;;;;;;;6.69;100.00;99553.92;1468701;87;21361;-80
2024/01/06 09:31:30;;;;;;;18.63;9.53;;;;;;;6.64;100.00;99546.95;1476849;88;21368;-81
2024/01/06 09:33:56;;;;;;;15.13;8.50;;;;;;;6.62;100.00;99551.54;1470220;87;21574;-81
2024/01/06 09:36:22;;;;;;;13.70;8.47;;;;;;;6.60;100.00;99544.28;1465787;88;22329;-81
2024/01/06 09:38:48;;;;;;;20.73;10.27;;;;;;;6.59;100.00;99537.38;1476332;87;21405;-80
2024/01/06 09:41:14;;;;;;;16.00;8.97;;;;;;;6.58;100.00;99530.44;1474929;87;21946;-81
2024/01/06 09:43:40;;;;;;;20.43;9.70;;;;;;;6.59;100.00;99528.63;1470250;87;21360;-81
2024/01/06 09:46:21;;;;;;;16.43;8.93;;;;;;;6.59;100.00;99525.54;1478248;88;21397;-78
2024/01/06 09:48:51;;;;;;;19.60;10.68;;;;;;;6.61;100.00;99531.46;1474489;87;21597;-82
2024/01/06 09:51:20;;;;;;;19.50;11.30;;;;;;;6.67;100.00;99526.94;1467823;88;22351;-81
2024/01/06 09:53:59;;;;;;;28.80;15.30;;;;;;;6.69;100.00;99528.95;1473400;88;22409;-83
2024/01/06 09:56:28;;;;;;;21.87;11.67;;;;;;;6.73;100.00;99525.07;1463997;88;21538;-80
2024/01/06 09:58:55;;;;;;;17.87;10.67;;;;;;;6.75;100.00;99525.73;1433127;88;21618;-81
2024/01/06 10:01:22;;;;;;;17.00;11.10;;;;;;;6.80;100.00;99524.48;1473764;87;21368;-82
2024/01/06 10:03:48;;;;;;;22.17;13.00;;;;;;;6.81;100.00;99508.55;1470769;87;21316;-79
2024/01/06 10:06:15;;;;;;;18.30;12.73;;;;;;;6.86;100.00;99506.80;1481940;87;21405;-80
2024/01/06 10:08:51;;;;;;;23.70;14.83;;;;;;;6.92;100.00;99503.58;1449476;87;21494;-81
2024/01/06 10:11:26;;;;;;;22.33;14.13;;;;;;;6.96;100.00;99500.52;1476692;87;21482;-80
2024/01/06 10:13:53;;;;;;;21.70;12.77;;;;;;;7.00;100.00;99493.16;1471197;87;21250;-80
2024/01/06 10:16:22;;;;;;;22.43;14.30;;;;;;;7.06;100.00;99491.74;1458636;87;21427;-80
2024/01/06 10:18:48;;;;;;;19.27;11.67;;;;;;;7.08;100.00;99489.30;1471989;87;21567;-80
2024/01/06 10:21:17;;;;;;;14.73;9.27;;;;;;;7.09;100.00;99489.64;1467105;88;22418;-80
2024/01/06 10:23:45;;;;;;;13.67;8.57;;;;;;;7.09;100.00;99482.23;1479131;88;21375;-80
2024/01/06 10:26:15;;;;;;;13.13;8.63;;;;;;;7.09;100.00;99481.74;1477287;87;21501;-80
2024/01/06 10:28:41;;;;;;;16.23;10.63;;;;;;;7.09;100.00;99483.05;1467527;88;21368;-79
2024/01/06 10:31:09;;;;;;;20.73;13.40;;;;;;;7.09;100.00;99476.97;1475470;87;21512;-81
2024/01/06 10:33:36;;;;;;;24.20;16.93;;;;;;;7.06;100.00;99474.14;1467545;88;21331;-80
2024/01/06 10:36:04;;;;;;;46.57;28.93;;;;;;;7.07;100.00;99457.38;1476777;87;21616;-80
2024/01/06 10:38:32;;;;;;;59.13;37.27;;;;;;;7.06;100.00;99453.59;1474996;88;21316;-80
2024/01/06 10:41:02;;;;;;;31.50;20.07;;;;;;;7.07;100.00;99448.16;1465597;87;21463;-80
2024/01/06 10:43:29;;;;;;;27.07;13.40;;;;;;;7.06;100.00;99447.84;1472244;87;21449;-80
2024/01/06 10:45:57;;;;;;;29.40;14.60;;;;;;;7.09;100.00;99445.40;1473575;88;22455;-81
2024/01/06 10:48:29;;;;;;;20.30;12.20;;;;;;;7.12;100.00;99441.97;1466818;88;21440;-79
2024/01/06 10:50:56;;;;;;;17.73;11.20;;;;;;;7.17;100.00;99444.98;1470882;87;21442;-80
2024/01/06 10:53:24;;;;;;;17.83;12.50;;;;;;;7.27;100.00;99441.45;1477624;88;21323;-80
2024/01/06 10:55:52;;;;;;;15.00;10.73;;;;;;;7.38;100.00;99446.49;1473966;87;21397;-80
2024/01/06 10:58:19;;;;;;;20.57;12.10;;;;;;;7.48;100.00;99441.99;1463902;88;21375;-80
2024/01/06 11:00:47;;;;;;;19.60;12.30;;;;;;;7.56;100.00;99432.81;1475798;88;21522;-80
2024/01/06 11:03:15;;;;;;;22.57;14.80;;;;;;;7.64;100.00;99432.88;1475814;87;21382;-80
2024/01/06 11:05:43;;;;;;;24.20;15.57;;;;;;;7.73;100.00;99425.87;1478953;87;21619;-80
2024/01/06 11:08:11;;;;;;;21.77;12.63;;;;;;;7.80;100.00;99422.16;1477829;87;21412;-80
2024/01/06 11:10:39;;;;;;;15.93;10.00;;;;;;;7.84;100.00;99430.07;1469249;88;21434;-80
2024/01/06 11:13:20;;;;;;;21.07;11.53;;;;;;;7.90;100.00;99427.63;1474294;88;21361;-80
2024/01/06 11:15:48;;;;;;;14.80;9.40;;;;;;;7.96;100.00;99425.37;1482084;88;21493;-79
2024/01/06 11:18:37;;;;;;;19.00;12.83;;;;;;;7.99;100.00;99424.56;1475219;87;21441;-79